createdAt,value
2022-10-19T00:01:23.917Z,6.52
2022-10-19T00:03:53.100Z,6.42
2022-10-19T00:06:25.449Z,6.34
2022-10-19T00:08:59.415Z,6.27
2022-10-19T00:11:27.025Z,6.21
2022-10-19T00:13:55.011Z,6.16
2022-10-19T00:16:22.437Z,6.11
2022-10-19T00:18:48.860Z,6.10
2022-10-19T00:21:17.759Z,6.08
2022-10-19T00:23:45.172Z,6.06
2022-10-19T00:26:12.882Z,6.06
2022-10-19T00:28:39.321Z,6.05
2022-10-19T00:31:08.572Z,6.00
2022-10-19T00:33:35.171Z,5.95
2022-10-19T00:36:01.979Z,5.93
2022-10-19T00:38:28.575Z,5.88
2022-10-19T00:40:54.917Z,5.87
2022-10-19T00:43:27.527Z,5.78
2022-10-19T00:45:53.898Z,5.73
2022-10-19T00:48:30.452Z,5.65
2022-10-19T00:50:59.704Z,5.61
2022-10-19T00:53:28.976Z,5.57
2022-10-19T00:55:57.176Z,5.52
2022-10-19T00:58:23.696Z,5.46
2022-10-19T01:00:50.197Z,5.43
2022-10-19T01:03:16.697Z,5.38
2022-10-19T01:05:43.334Z,5.37
2022-10-19T01:08:11.514Z,5.35
2022-10-19T01:10:50.755Z,5.33
2022-10-19T01:13:32.173Z,5.33
2022-10-19T01:16:18.967Z,5.33
2022-10-19T01:19:03.772Z,5.25
2022-10-19T01:21:46.525Z,5.21
2022-10-19T01:24:16.049Z,5.21
2022-10-19T01:26:54.403Z,5.24
2022-10-19T01:30:00.028Z,5.21
2022-10-19T01:32:38.242Z,5.20
2022-10-19T01:35:12.455Z,5.16
2022-10-19T01:38:04.276Z,5.10
2022-10-19T01:40:30.552Z,5.01
2022-10-19T01:43:02.522Z,4.95
2022-10-19T01:45:41.583Z,4.90
2022-10-19T01:48:16.054Z,4.86
2022-10-19T01:51:00.223Z,4.84
2022-10-19T01:53:30.283Z,4.83
2022-10-19T01:55:58.875Z,4.80
2022-10-19T01:58:29.500Z,4.79
2022-10-19T02:00:58.633Z,4.78
2022-10-19T02:03:25.818Z,4.76
2022-10-19T02:05:54.003Z,4.68
2022-10-19T02:08:27.547Z,4.64
2022-10-19T02:10:57.211Z,4.62
2022-10-19T02:13:26.176Z,4.62
2022-10-19T02:15:56.025Z,4.59
2022-10-19T02:18:33.213Z,4.61
2022-10-19T02:21:02.447Z,4.59
2022-10-19T02:23:29.127Z,4.58
2022-10-19T02:25:56.268Z,4.55
2022-10-19T02:28:26.973Z,4.53
2022-10-19T02:30:53.524Z,4.49
2022-10-19T02:33:20.054Z,4.47
2022-10-19T02:35:47.900Z,4.46
2022-10-19T02:38:18.864Z,4.44
2022-10-19T02:40:55.969Z,4.41
2022-10-19T02:43:26.371Z,4.41
2022-10-19T02:46:01.251Z,4.39
2022-10-19T02:48:31.220Z,4.39
2022-10-19T02:50:57.543Z,4.39
2022-10-19T02:53:23.850Z,4.40
2022-10-19T02:55:51.444Z,4.35
2022-10-19T02:58:17.921Z,4.35
2022-10-19T03:00:44.316Z,4.37
2022-10-19T03:03:11.123Z,4.36
2022-10-19T03:05:37.615Z,4.37
2022-10-19T03:08:04.238Z,4.38
2022-10-19T03:10:30.590Z,4.34
2022-10-19T03:13:00.124Z,4.33
2022-10-19T03:15:29.029Z,4.37
2022-10-19T03:17:56.201Z,4.35
2022-10-19T03:20:22.867Z,4.29
2022-10-19T03:22:49.548Z,4.26
2022-10-19T03:25:16.024Z,4.20
2022-10-19T03:27:42.321Z,4.20
2022-10-19T03:30:08.970Z,4.19
2022-10-19T03:32:35.300Z,4.13
2022-10-19T03:35:01.694Z,4.09
2022-10-19T03:37:28.244Z,4.05
2022-10-19T03:39:54.558Z,4.02
2022-10-19T03:42:20.857Z,4.02
2022-10-19T03:44:47.168Z,4.02
2022-10-19T03:47:13.512Z,4.02
2022-10-19T03:49:40.386Z,4.01
2022-10-19T03:52:07.026Z,3.99
2022-10-19T03:54:33.353Z,4.01
2022-10-19T03:56:59.680Z,4.01
2022-10-19T03:59:26.086Z,4.01
2022-10-19T04:01:52.417Z,3.97
2022-10-19T04:04:19.779Z,3.98
2022-10-19T04:06:49.808Z,3.97
2022-10-19T04:09:19.718Z,3.94
2022-10-19T04:11:46.581Z,3.90
2022-10-19T04:14:22.643Z,3.90
2022-10-19T04:16:58.590Z,3.92
2022-10-19T04:19:24.924Z,3.92
2022-10-19T04:21:51.269Z,3.92
2022-10-19T04:24:18.887Z,3.90
2022-10-19T04:26:47.763Z,3.84
2022-10-19T04:29:17.341Z,3.83
2022-10-19T04:31:43.772Z,3.77
2022-10-19T04:34:10.482Z,3.74
2022-10-19T04:36:36.999Z,3.71
2022-10-19T04:39:04.746Z,3.68
2022-10-19T04:41:31.087Z,3.71
2022-10-19T04:43:59.656Z,3.73
2022-10-19T04:46:27.304Z,3.74
2022-10-19T04:48:54.565Z,3.73
2022-10-19T04:51:22.246Z,3.76
2022-10-19T04:53:49.515Z,3.77
2022-10-19T04:56:19.044Z,3.77
2022-10-19T04:58:45.816Z,3.74
2022-10-19T05:01:15.815Z,3.77
2022-10-19T05:03:42.463Z,3.76
2022-10-19T05:06:09.794Z,3.75
2022-10-19T05:08:36.966Z,3.75
2022-10-19T05:11:07.060Z,3.75
2022-10-19T05:13:33.662Z,3.72
2022-10-19T05:16:02.016Z,3.67
2022-10-19T05:18:28.944Z,3.67
2022-10-19T05:21:11.688Z,3.66
2022-10-19T05:23:39.216Z,3.64
2022-10-19T05:26:17.546Z,3.65
2022-10-19T05:28:57.874Z,3.64
2022-10-19T05:31:26.906Z,3.63
2022-10-19T05:33:54.168Z,3.62
2022-10-19T05:36:26.204Z,3.61
2022-10-19T05:38:55.104Z,3.61
2022-10-19T05:41:22.507Z,3.62
2022-10-19T05:43:53.653Z,3.63
2022-10-19T05:46:19.977Z,3.63
2022-10-19T05:48:47.336Z,3.61
2022-10-19T05:51:18.798Z,3.53
2022-10-19T05:53:45.771Z,3.43
2022-10-19T05:56:17.907Z,3.45
2022-10-19T05:58:44.651Z,3.47
2022-10-19T06:01:11.859Z,3.49
2022-10-19T06:03:38.256Z,3.48
2022-10-19T06:06:06.054Z,3.50
2022-10-19T06:08:33.416Z,3.52
2022-10-19T06:11:11.372Z,3.53
2022-10-19T06:13:39.099Z,3.53
2022-10-19T06:16:06.847Z,3.54
2022-10-19T06:18:33.276Z,3.56
2022-10-19T06:21:04.427Z,3.56
2022-10-19T06:23:35.147Z,3.51
2022-10-19T06:26:07.140Z,3.49
2022-10-19T06:28:34.146Z,3.50
2022-10-19T06:31:00.931Z,3.50
2022-10-19T06:33:28.364Z,3.50
2022-10-19T06:35:54.720Z,3.50
2022-10-19T06:38:21.751Z,3.53
2022-10-19T06:40:49.111Z,3.56
2022-10-19T06:43:16.110Z,3.61
2022-10-19T06:45:42.519Z,3.61
2022-10-19T06:48:08.912Z,3.64
2022-10-19T06:50:35.478Z,3.68
2022-10-19T06:53:01.787Z,3.74
2022-10-19T06:55:28.236Z,3.77
2022-10-19T06:57:54.559Z,3.82
2022-10-19T07:00:20.899Z,3.89
2022-10-19T07:02:47.219Z,3.95
2022-10-19T07:05:13.539Z,4.01
2022-10-19T07:07:39.915Z,4.05
2022-10-19T07:10:06.586Z,4.12
2022-10-19T07:12:32.937Z,4.20
2022-10-19T07:14:59.287Z,4.29
2022-10-19T07:17:25.731Z,4.39
2022-10-19T07:19:52.100Z,4.46
2022-10-19T07:22:22.188Z,4.53
2022-10-19T07:24:52.268Z,4.61
2022-10-19T07:27:18.843Z,4.70
2022-10-19T07:29:45.259Z,4.79
2022-10-19T07:32:11.586Z,4.90
2022-10-19T07:34:37.904Z,4.98
2022-10-19T07:37:04.240Z,5.08
2022-10-19T07:39:30.674Z,5.19
2022-10-19T07:41:56.996Z,5.33
2022-10-19T07:44:23.457Z,5.44
2022-10-19T07:46:50.365Z,5.55
2022-10-19T07:49:18.887Z,5.67
2022-10-19T07:51:46.542Z,5.82
2022-10-19T07:54:13.505Z,5.95
2022-10-19T07:56:40.185Z,6.13
2022-10-19T07:59:06.624Z,6.25
2022-10-19T08:01:38.191Z,6.41
2022-10-19T08:06:50.949Z,6.79
2022-10-19T08:09:40.037Z,6.93
2022-10-19T08:12:05.422Z,7.11
2022-10-19T08:14:32.250Z,7.35
2022-10-19T08:16:58.665Z,7.63
2022-10-19T08:19:24.982Z,8.00
2022-10-19T08:21:51.327Z,8.39
2022-10-19T08:24:19.630Z,8.69
2022-10-19T08:26:47.826Z,9.00
2022-10-19T08:29:17.085Z,9.77
2022-10-19T08:31:45.252Z,10.41
2022-10-19T08:34:12.856Z,10.49
2022-10-19T08:36:39.655Z,10.43
2022-10-19T08:39:08.580Z,10.42
2022-10-19T08:41:41.171Z,10.43
2022-10-19T08:44:31.687Z,10.62
2022-10-19T08:47:41.622Z,10.80
2022-10-19T08:50:18.669Z,10.86
2022-10-19T08:52:49.545Z,11.06
2022-10-19T08:55:23.129Z,11.26
2022-10-19T08:58:14.324Z,11.31
2022-10-19T09:00:46.269Z,11.78
2022-10-19T09:03:54.805Z,13.74
2022-10-19T09:07:19.929Z,14.65
2022-10-19T09:09:55.387Z,14.61
2022-10-19T09:12:37.723Z,15.16
2022-10-19T09:15:10.286Z,15.82
2022-10-19T09:17:36.653Z,16.14
2022-10-19T09:20:18.730Z,16.51
2022-10-19T09:22:50.830Z,16.47
2022-10-19T09:25:22.263Z,16.39
2022-10-19T09:27:58.930Z,16.20
2022-10-19T09:30:25.576Z,15.77
2022-10-19T09:32:59.977Z,15.38
2022-10-19T09:35:28.753Z,14.88
2022-10-19T09:37:56.302Z,14.81
2022-10-19T09:40:28.939Z,14.92
2022-10-19T09:43:02.621Z,14.95
2022-10-19T09:45:48.639Z,14.91
2022-10-19T09:48:23.995Z,14.99
2022-10-19T09:50:59.740Z,15.02
2022-10-19T09:53:28.114Z,14.91
2022-10-19T09:56:02.773Z,15.12
2022-10-19T09:58:32.934Z,15.25
2022-10-19T10:01:01.074Z,15.22
2022-10-19T10:03:40.215Z,15.09
2022-10-19T10:06:14.107Z,15.01
2022-10-19T10:08:47.421Z,15.05
2022-10-19T10:11:22.721Z,14.81
2022-10-19T10:13:52.368Z,14.66
2022-10-19T10:16:22.147Z,14.61
2022-10-19T10:18:54.712Z,14.81
2022-10-19T10:21:28.664Z,14.84
2022-10-19T10:24:11.763Z,14.74
2022-10-19T10:26:41.208Z,14.73
2022-10-19T10:29:19.136Z,14.82
2022-10-19T10:31:49.752Z,14.79
2022-10-19T10:34:45.612Z,14.62
2022-10-19T10:37:25.839Z,14.54
2022-10-19T10:40:00.304Z,14.54
2022-10-19T10:42:44.713Z,14.65
2022-10-19T10:45:31.312Z,14.84
2022-10-19T10:47:59.701Z,15.01
2022-10-19T10:50:32.538Z,15.06
2022-10-19T10:53:38.873Z,14.92
2022-10-19T10:56:19.418Z,14.97
2022-10-19T10:59:12.126Z,15.20
2022-10-19T11:01:51.072Z,15.24
2022-10-19T11:04:25.387Z,15.16
2022-10-19T11:06:57.086Z,15.24
2022-10-19T11:09:36.553Z,15.43
2022-10-19T11:12:08.953Z,15.42
2022-10-19T11:14:41.381Z,15.50
2022-10-19T11:17:17.248Z,15.62
2022-10-19T11:19:45.056Z,15.78
2022-10-19T11:22:36.030Z,15.97
2022-10-19T11:25:26.383Z,15.94
2022-10-19T11:28:22.948Z,16.35
2022-10-19T11:31:08.118Z,16.61
2022-10-19T11:33:53.970Z,16.90
2022-10-19T11:36:32.489Z,16.98
2022-10-19T11:39:19.271Z,17.26
2022-10-19T11:42:05.684Z,17.42
2022-10-19T11:44:46.870Z,17.31
2022-10-19T11:47:32.357Z,17.65
2022-10-19T11:53:06.007Z,17.99
2022-10-19T11:55:40.555Z,17.92
2022-10-19T11:58:20.706Z,17.58
2022-10-19T12:00:58.763Z,17.13
2022-10-19T12:03:37.132Z,17.31
2022-10-19T12:06:14.343Z,17.45
2022-10-19T12:08:50.142Z,17.48
2022-10-19T12:11:41.214Z,17.48
2022-10-19T12:14:14.112Z,17.48
2022-10-19T12:16:44.164Z,17.83
2022-10-19T12:19:18.165Z,18.45
2022-10-19T12:21:45.766Z,18.56
2022-10-19T12:24:22.606Z,18.88
2022-10-19T12:26:50.867Z,19.00
2022-10-19T12:29:40.601Z,18.90
2022-10-19T12:32:07.998Z,18.88
2022-10-19T12:35:00.269Z,19.04
2022-10-19T12:37:44.034Z,19.47
2022-10-19T12:40:39.988Z,19.45
2022-10-19T12:43:10.693Z,19.56
2022-10-19T12:45:44.407Z,19.38
2022-10-19T12:48:18.914Z,19.36
2022-10-19T12:50:48.412Z,19.14
2022-10-19T12:56:03.990Z,19.73
2022-10-19T12:58:47.441Z,20.04
2022-10-19T13:01:24.328Z,19.29
2022-10-19T13:04:07.244Z,19.03
2022-10-19T13:06:36.443Z,18.83
2022-10-19T13:09:06.258Z,18.64
2022-10-19T13:14:26.052Z,19.20
2022-10-19T13:16:57.138Z,18.93
2022-10-19T13:19:24.436Z,18.90
2022-10-19T13:22:00.984Z,18.67
2022-10-19T13:24:27.344Z,18.50
2022-10-19T13:26:59.741Z,18.71
2022-10-19T13:29:27.667Z,18.47
2022-10-19T13:31:54.287Z,18.51
2022-10-19T13:34:24.169Z,18.20
2022-10-19T13:37:18.447Z,18.43
2022-10-19T13:39:44.832Z,18.45
2022-10-19T13:42:37.637Z,18.76
2022-10-19T13:45:05.066Z,18.41
2022-10-19T13:47:39.806Z,18.29
2022-10-19T13:50:31.235Z,18.15
2022-10-19T13:53:09.759Z,17.86
2022-10-19T13:56:07.671Z,17.95
2022-10-19T13:59:07.991Z,18.21
2022-10-19T14:02:02.241Z,18.51
2022-10-19T14:04:44.352Z,18.88
2022-10-19T14:07:17.350Z,19.47
2022-10-19T14:10:00.227Z,19.74
2022-10-19T14:12:30.099Z,19.54
2022-10-19T14:14:57.344Z,19.37
2022-10-19T14:17:33.421Z,19.10
2022-10-19T14:20:00.512Z,18.51
2022-10-19T14:22:30.018Z,17.93
2022-10-19T14:25:02.215Z,17.49
2022-10-19T14:27:30.326Z,17.48
2022-10-19T14:29:57.477Z,17.42
2022-10-19T14:32:27.311Z,17.42
2022-10-19T14:34:57.426Z,17.40
2022-10-19T14:37:26.720Z,17.43
2022-10-19T14:40:26.792Z,18.08
2022-10-19T14:42:55.143Z,18.95
2022-10-19T14:45:27.302Z,18.83
2022-10-19T14:47:59.721Z,18.08
2022-10-19T14:50:51.375Z,17.73
2022-10-19T14:53:30.374Z,17.40
2022-10-19T14:56:04.675Z,17.23
2022-10-19T14:58:40.049Z,17.09
2022-10-19T15:01:07.336Z,16.92
2022-10-19T15:03:34.315Z,16.89
2022-10-19T15:06:06.313Z,16.73
2022-10-19T15:08:42.559Z,16.55
2022-10-19T15:11:23.762Z,16.41
2022-10-19T15:14:00.559Z,16.27
2022-10-19T15:16:42.146Z,16.16
2022-10-19T15:19:25.037Z,16.00
2022-10-19T15:22:21.505Z,15.97
2022-10-19T15:25:14.111Z,15.80
2022-10-19T15:27:45.437Z,15.72
2022-10-19T15:30:17.737Z,15.63
2022-10-19T15:33:10.427Z,15.46
2022-10-19T15:35:39.467Z,15.32
2022-10-19T15:38:19.858Z,15.20
2022-10-19T15:40:47.129Z,15.10
2022-10-19T15:43:34.604Z,14.97
2022-10-19T15:46:19.765Z,14.82
2022-10-19T15:48:52.306Z,14.80
2022-10-19T15:51:48.021Z,14.77
2022-10-19T15:54:17.121Z,14.68
2022-10-19T15:56:46.598Z,14.68
2022-10-19T15:59:19.501Z,14.61
2022-10-19T16:01:55.110Z,14.49
2022-10-19T16:04:22.382Z,14.38
2022-10-19T16:06:48.732Z,14.20
2022-10-19T16:09:20.562Z,14.07
2022-10-19T16:11:47.615Z,13.97
2022-10-19T16:14:14.056Z,13.87
2022-10-19T16:16:41.839Z,13.79
2022-10-19T16:19:09.820Z,13.69
2022-10-19T16:21:38.183Z,13.69
2022-10-19T16:24:04.754Z,13.56
2022-10-19T16:26:32.286Z,13.56
2022-10-19T16:28:59.659Z,13.46
2022-10-19T16:31:26.075Z,13.36
2022-10-19T16:33:52.599Z,13.26
2022-10-19T16:36:20.303Z,13.19
2022-10-19T16:38:47.492Z,13.11
2022-10-19T16:41:14.472Z,13.10
2022-10-19T16:43:40.858Z,13.00
2022-10-19T16:46:07.470Z,12.95
2022-10-19T16:48:34.385Z,12.88
2022-10-19T16:51:06.913Z,12.84
2022-10-19T16:53:34.775Z,12.84
2022-10-19T16:56:06.037Z,12.75
2022-10-19T16:58:32.357Z,12.73
2022-10-19T17:01:01.394Z,12.66
2022-10-19T17:03:30.752Z,12.60
2022-10-19T17:05:57.160Z,12.57
2022-10-19T17:08:36.394Z,12.50
2022-10-19T17:11:12.620Z,12.42
2022-10-19T17:13:39.426Z,12.36
2022-10-19T17:16:06.967Z,12.32
2022-10-19T17:18:33.741Z,12.19
2022-10-19T17:21:05.383Z,12.11
2022-10-19T17:23:31.816Z,12.08
2022-10-19T17:25:58.241Z,12.03
2022-10-19T17:28:27.719Z,12.00
2022-10-19T17:30:54.288Z,11.94
2022-10-19T17:33:21.547Z,11.88
2022-10-19T17:35:47.935Z,11.84
2022-10-19T17:38:14.404Z,11.80
2022-10-19T17:40:40.768Z,11.71
2022-10-19T17:43:07.184Z,11.64
2022-10-19T17:45:33.591Z,11.65
2022-10-19T17:47:59.944Z,11.58
2022-10-19T17:50:26.248Z,11.57
2022-10-19T17:52:52.587Z,11.48
2022-10-19T17:55:19.000Z,11.51
2022-10-19T17:57:45.439Z,11.50
2022-10-19T18:00:12.216Z,11.45
2022-10-19T18:02:39.803Z,11.38
2022-10-19T18:05:06.437Z,11.38
2022-10-19T18:07:32.997Z,11.36
2022-10-19T18:09:59.474Z,11.31
2022-10-19T18:12:26.647Z,11.27
2022-10-19T18:14:52.949Z,11.22
2022-10-19T18:17:21.623Z,11.18
2022-10-19T18:19:49.308Z,11.17
2022-10-19T18:22:15.668Z,11.13
2022-10-19T18:24:41.984Z,11.12
2022-10-19T18:27:08.367Z,11.12
2022-10-19T18:29:34.718Z,11.08
2022-10-19T18:32:01.457Z,11.05
2022-10-19T18:34:27.936Z,11.01
2022-10-19T18:36:55.036Z,10.96
2022-10-19T18:39:21.736Z,10.94
2022-10-19T18:41:54.028Z,10.87
2022-10-19T18:44:25.278Z,10.80
2022-10-19T18:46:53.755Z,10.78
2022-10-19T18:49:20.299Z,10.73
2022-10-19T18:51:50.741Z,10.66
2022-10-19T18:54:20.857Z,10.65
2022-10-19T18:56:47.232Z,10.61
2022-10-19T18:59:13.715Z,10.56
2022-10-19T19:01:40.193Z,10.53
2022-10-19T19:04:09.022Z,10.51
2022-10-19T19:06:36.515Z,10.48
2022-10-19T19:09:07.458Z,10.45
2022-10-19T19:11:36.994Z,10.39
2022-10-19T19:14:22.492Z,10.32
2022-10-19T19:16:48.817Z,10.32
2022-10-19T19:19:17.737Z,10.29
2022-10-19T19:21:45.152Z,10.26
2022-10-19T19:24:17.215Z,10.23
2022-10-19T19:26:48.172Z,10.19
2022-10-19T19:29:15.035Z,10.16
2022-10-19T19:31:41.393Z,10.15
2022-10-19T19:34:09.268Z,10.11
2022-10-19T19:36:38.000Z,10.06
2022-10-19T19:39:05.266Z,10.00
2022-10-19T19:41:33.984Z,9.98
2022-10-19T19:44:00.480Z,9.95
2022-10-19T19:46:26.884Z,9.90
2022-10-19T19:48:59.949Z,9.87
2022-10-19T19:51:27.204Z,9.82
2022-10-19T19:53:53.548Z,9.80
2022-10-19T19:56:20.752Z,9.76
2022-10-19T19:58:47.595Z,9.74
2022-10-19T20:01:19.025Z,9.68
2022-10-19T20:03:46.734Z,9.63
2022-10-19T20:06:15.181Z,9.62
2022-10-19T20:08:41.999Z,9.60
2022-10-19T20:11:12.929Z,9.55
2022-10-19T20:13:39.736Z,9.49
2022-10-19T20:16:12.428Z,9.48
2022-10-19T20:18:40.599Z,9.47
2022-10-19T20:21:07.110Z,9.43
2022-10-19T20:23:33.523Z,9.44
2022-10-19T20:25:59.917Z,9.39
2022-10-19T20:28:27.886Z,9.35
2022-10-19T20:31:06.569Z,9.27
2022-10-19T20:33:35.155Z,9.26
2022-10-19T20:36:08.692Z,9.25
2022-10-19T20:38:38.410Z,9.23
2022-10-19T20:41:08.025Z,9.20
2022-10-19T20:43:36.259Z,9.22
2022-10-19T20:46:08.221Z,9.19
2022-10-19T20:48:34.572Z,9.15
2022-10-19T20:51:16.282Z,9.12
2022-10-19T20:53:46.204Z,9.11
2022-10-19T20:56:14.744Z,9.08
2022-10-19T20:58:43.351Z,9.04
2022-10-19T21:01:13.102Z,9.00
2022-10-19T21:03:39.977Z,9.02
2022-10-19T21:06:08.476Z,8.98
2022-10-19T21:08:35.903Z,8.95
2022-10-19T21:11:12.112Z,8.92
2022-10-19T21:13:38.467Z,8.91
2022-10-19T21:16:09.857Z,8.89
2022-10-19T21:18:36.176Z,8.86
2022-10-19T21:21:14.157Z,8.81
2022-10-19T21:23:41.387Z,8.76
2022-10-19T21:26:07.748Z,8.76
2022-10-19T21:28:34.160Z,8.70
2022-10-19T21:31:08.359Z,8.66
2022-10-19T21:33:35.781Z,8.65
2022-10-19T21:36:04.197Z,8.62
2022-10-19T21:38:30.909Z,8.60
2022-10-19T21:41:08.714Z,8.58
2022-10-19T21:43:35.471Z,8.57
2022-10-19T21:46:03.524Z,8.55
2022-10-19T21:48:30.562Z,8.53
2022-10-19T21:50:57.129Z,8.52
2022-10-19T21:53:23.612Z,8.49
2022-10-19T21:55:51.704Z,8.43
2022-10-19T21:58:21.524Z,8.42
2022-10-19T22:00:48.443Z,8.38
2022-10-19T22:03:17.189Z,8.37
2022-10-19T22:05:51.388Z,8.33
2022-10-19T22:08:17.722Z,8.30
2022-10-19T22:10:44.032Z,8.27
2022-10-19T22:13:10.472Z,8.21
2022-10-19T22:15:38.129Z,8.17
2022-10-19T22:18:05.363Z,8.16
2022-10-19T22:20:31.867Z,8.17
2022-10-19T22:22:58.237Z,8.13
2022-10-19T22:25:24.562Z,8.12
2022-10-19T22:27:50.914Z,8.12
2022-10-19T22:30:17.334Z,8.12
2022-10-19T22:32:43.742Z,8.09
2022-10-19T22:35:10.064Z,8.06
2022-10-19T22:37:36.385Z,8.07
2022-10-19T22:40:02.790Z,8.04
2022-10-19T22:42:29.199Z,8.04
2022-10-19T22:44:55.615Z,8.03
2022-10-19T22:47:22.019Z,7.96
2022-10-19T22:49:48.352Z,7.95
2022-10-19T22:52:16.324Z,7.96
2022-10-19T22:54:43.085Z,7.96
2022-10-19T22:57:11.677Z,7.96
2022-10-19T22:59:38.487Z,7.99
2022-10-19T23:02:04.984Z,7.97
2022-10-19T23:04:31.455Z,7.95
2022-10-19T23:06:57.821Z,7.90
2022-10-19T23:09:24.236Z,7.88
2022-10-19T23:11:50.575Z,7.85
2022-10-19T23:14:16.965Z,7.86
2022-10-19T23:16:43.312Z,7.89
2022-10-19T23:19:09.653Z,7.87
2022-10-19T23:21:35.982Z,7.85
2022-10-19T23:24:02.396Z,7.81
2022-10-19T23:26:28.803Z,7.79
2022-10-19T23:28:55.161Z,7.78
2022-10-19T23:31:26.260Z,7.80
2022-10-19T23:33:53.438Z,7.81
2022-10-19T23:36:22.345Z,7.83
2022-10-19T23:38:50.350Z,7.82
2022-10-19T23:41:17.813Z,7.79
2022-10-19T23:43:44.578Z,7.78
2022-10-19T23:46:11.475Z,7.75
2022-10-19T23:48:37.903Z,7.73
2022-10-19T23:51:10.631Z,7.75
2022-10-19T23:53:41.037Z,7.74
2022-10-19T23:56:20.571Z,7.74
2022-10-19T23:58:47.622Z,7.75
